createdAt,value
2023-03-06T00:00:33.392Z,68.53
2023-03-06T00:01:33.529Z,69.59
2023-03-06T00:02:33.360Z,69.91
2023-03-06T00:03:33.600Z,70.21
2023-03-06T00:04:33.341Z,70.53
2023-03-06T00:05:33.448Z,70.08
2023-03-06T00:06:33.308Z,69.98
2023-03-06T00:07:33.441Z,68.72
2023-03-06T00:08:33.280Z,67.45
2023-03-06T00:09:33.315Z,68.25
2023-03-06T00:10:33.264Z,68.01
2023-03-06T00:11:33.352Z,66.78
2023-03-06T00:12:33.230Z,67.12
2023-03-06T00:13:33.369Z,66.32
2023-03-06T00:14:33.372Z,65.14
2023-03-06T00:15:33.549Z,64.79
2023-03-06T00:16:33.261Z,64.06
2023-03-06T00:17:35.349Z,63.55
2023-03-06T00:18:33.158Z,63.41
2023-03-06T00:19:33.265Z,63.76
2023-03-06T00:20:33.111Z,63.82
2023-03-06T00:21:33.230Z,63.18
2023-03-06T00:22:33.112Z,63.33
2023-03-06T00:23:33.264Z,62.95
2023-03-06T00:24:33.082Z,62.17
2023-03-06T00:25:33.249Z,62.05
2023-03-06T00:26:33.050Z,61.60
2023-03-06T00:27:33.143Z,61.40
2023-03-06T00:28:33.016Z,61.44
2023-03-06T00:29:33.067Z,61.22
2023-03-06T00:30:32.997Z,60.99
2023-03-06T00:31:33.206Z,60.82
2023-03-06T00:32:33.061Z,60.41
2023-03-06T00:33:55.035Z,60.08
2023-03-06T00:34:32.944Z,60.39
2023-03-06T00:35:33.101Z,59.82
2023-03-06T00:36:32.917Z,59.16
2023-03-06T00:37:32.956Z,58.81
2023-03-06T00:38:32.894Z,58.89
2023-03-06T00:39:33.955Z,58.37
2023-03-06T00:40:32.865Z,58.17
2023-03-06T00:41:32.974Z,57.52
2023-03-06T00:42:32.835Z,57.41
2023-03-06T00:43:32.954Z,57.24
2023-03-06T00:44:32.832Z,57.31
2023-03-06T00:45:34.033Z,56.99
2023-03-06T00:46:32.783Z,57.00
2023-03-06T00:47:32.873Z,56.63
2023-03-06T00:48:32.762Z,56.49
2023-03-06T00:49:32.866Z,56.23
2023-03-06T00:50:32.733Z,56.17
2023-03-06T00:51:53.833Z,56.16
2023-03-06T00:52:32.718Z,56.33
2023-03-06T00:53:32.898Z,56.20
2023-03-06T00:54:32.681Z,55.89
2023-03-06T00:55:32.767Z,55.73
2023-03-06T00:56:32.658Z,55.76
2023-03-06T00:57:32.797Z,55.62
2023-03-06T00:58:32.630Z,55.19
2023-03-06T00:59:32.733Z,55.53
2023-03-06T01:00:32.610Z,55.51
2023-03-06T01:01:33.809Z,55.44
2023-03-06T01:02:32.648Z,55.17
2023-03-06T01:03:33.692Z,55.09
2023-03-06T01:04:32.578Z,54.99
2023-03-06T01:05:32.592Z,54.88
2023-03-06T01:06:32.519Z,54.99
2023-03-06T01:07:32.678Z,54.88
2023-03-06T01:08:32.502Z,54.50
2023-03-06T01:09:33.591Z,54.40
2023-03-06T01:10:32.471Z,54.29
2023-03-06T01:11:32.606Z,54.30
2023-03-06T01:12:32.445Z,54.20
2023-03-06T01:13:32.586Z,54.02
2023-03-06T01:14:32.414Z,54.02
2023-03-06T01:15:32.496Z,53.94
2023-03-06T01:16:32.523Z,53.88
2023-03-06T01:17:32.505Z,54.03
2023-03-06T01:18:32.398Z,53.77
2023-03-06T01:19:33.516Z,53.83
2023-03-06T01:20:32.343Z,54.01
2023-03-06T01:22:41.858Z,53.51
2023-03-06T01:23:41.647Z,53.52
2023-03-06T01:24:41.772Z,53.64
2023-03-06T01:25:41.620Z,53.83
2023-03-06T01:26:41.717Z,53.95
2023-03-06T01:27:41.577Z,53.86
2023-03-06T01:28:41.658Z,53.84
2023-03-06T01:29:41.571Z,53.68
2023-03-06T01:30:41.676Z,53.44
2023-03-06T01:31:41.565Z,53.67
2023-03-06T01:32:42.699Z,53.60
2023-03-06T01:33:41.515Z,53.42
2023-03-06T01:34:41.678Z,53.49
2023-03-06T01:35:41.528Z,53.85
2023-03-06T01:36:41.668Z,53.61
2023-03-06T01:37:41.472Z,54.13
2023-03-06T01:38:41.537Z,53.85
2023-03-06T01:39:41.436Z,53.65
2023-03-06T01:40:42.509Z,53.72
2023-03-06T01:41:41.415Z,53.95
2023-03-06T01:42:41.564Z,54.22
2023-03-06T01:43:41.389Z,53.94
2023-03-06T01:44:41.548Z,53.99
2023-03-06T01:45:41.386Z,53.89
2023-03-06T01:46:41.511Z,54.47
2023-03-06T01:47:41.333Z,54.38
2023-03-06T01:48:41.464Z,53.82
2023-03-06T01:49:41.299Z,53.70
2023-03-06T01:50:41.452Z,53.77
2023-03-06T01:51:41.298Z,53.77
2023-03-06T01:52:41.381Z,53.85
2023-03-06T01:53:41.264Z,53.80
2023-03-06T01:54:41.368Z,53.59
2023-03-06T01:55:41.235Z,53.58
2023-03-06T01:56:41.263Z,53.80
2023-03-06T01:57:41.209Z,53.51
2023-03-06T01:58:41.301Z,53.63
2023-03-06T01:59:41.183Z,53.95
2023-03-06T02:00:41.281Z,53.94
2023-03-06T02:01:41.150Z,53.89
2023-03-06T02:02:41.213Z,53.95
2023-03-06T02:03:41.122Z,54.05
2023-03-06T02:04:41.328Z,54.05
2023-03-06T02:05:41.118Z,53.69
2023-03-06T02:06:41.183Z,53.75
2023-03-06T02:07:41.122Z,53.76
2023-03-06T02:08:41.171Z,53.66
2023-03-06T02:09:41.042Z,54.24
2023-03-06T02:10:41.210Z,53.95
2023-03-06T02:11:41.052Z,53.79
2023-03-06T02:12:41.190Z,54.01
2023-03-06T02:13:41.001Z,54.17
2023-03-06T02:14:43.080Z,53.89
2023-03-06T02:15:40.974Z,53.73
2023-03-06T02:16:41.093Z,53.63
2023-03-06T02:17:40.941Z,53.79
2023-03-06T02:18:41.107Z,53.48
2023-03-06T02:19:40.909Z,53.38
2023-03-06T02:20:41.081Z,53.31
2023-03-06T02:21:40.890Z,53.19
2023-03-06T02:22:41.030Z,53.21
2023-03-06T02:23:40.871Z,53.03
2023-03-06T02:24:40.900Z,53.12
2023-03-06T02:25:40.850Z,53.18
2023-03-06T02:26:40.905Z,53.15
2023-03-06T02:27:40.810Z,53.15
2023-03-06T02:28:40.939Z,53.24
2023-03-06T02:29:40.779Z,53.03
2023-03-06T02:30:42.971Z,53.20
2023-03-06T02:31:40.763Z,53.47
2023-03-06T02:32:42.990Z,53.40
2023-03-06T02:33:40.737Z,53.27
2023-03-06T02:34:40.828Z,53.19
2023-03-06T02:35:40.747Z,53.11
2023-03-06T02:36:40.819Z,53.52
2023-03-06T02:37:40.679Z,53.49
2023-03-06T02:39:01.781Z,53.18
2023-03-06T02:39:40.648Z,53.25
2023-03-06T02:40:40.839Z,53.13
2023-03-06T02:41:40.633Z,53.03
2023-03-06T02:42:41.791Z,54.04
2023-03-06T02:43:40.594Z,55.09
2023-03-06T02:44:40.708Z,55.90
2023-03-06T02:45:40.575Z,54.18
2023-03-06T02:46:40.637Z,55.09
2023-03-06T02:47:40.557Z,53.68
2023-03-06T02:48:40.726Z,53.85
2023-03-06T02:49:40.517Z,54.23
2023-03-06T02:50:40.727Z,56.22
2023-03-06T02:51:40.486Z,56.96
2023-03-06T02:52:40.545Z,57.88
2023-03-06T02:53:40.470Z,56.13
2023-03-06T02:54:40.522Z,58.15
2023-03-06T02:55:40.447Z,58.23
2023-03-06T02:56:40.560Z,57.68
2023-03-06T02:57:40.420Z,57.43
2023-03-06T02:58:40.550Z,59.00
2023-03-06T02:59:40.381Z,56.54
2023-03-06T03:00:40.430Z,57.18
2023-03-06T03:01:40.422Z,58.56
2023-03-06T03:02:40.411Z,59.17
2023-03-06T03:03:40.345Z,59.31
2023-03-06T03:04:40.520Z,58.09
2023-03-06T03:05:40.305Z,60.30
2023-03-06T03:06:41.498Z,60.81
2023-03-06T03:07:40.271Z,57.31
2023-03-06T03:08:40.432Z,56.32
2023-03-06T03:09:40.239Z,56.74
2023-03-06T03:10:41.286Z,55.52
2023-03-06T03:11:40.220Z,55.57
2023-03-06T03:12:40.350Z,55.17
2023-03-06T03:13:40.187Z,55.08
2023-03-06T03:14:40.370Z,54.64
2023-03-06T03:15:40.218Z,55.77
2023-03-06T03:16:40.269Z,56.95
2023-03-06T03:17:40.147Z,56.82
2023-03-06T03:18:40.348Z,56.69
2023-03-06T03:19:40.116Z,54.65
2023-03-06T03:20:40.243Z,54.40
2023-03-06T03:21:40.078Z,53.52
2023-03-06T03:22:40.169Z,53.13
2023-03-06T03:23:40.105Z,54.75
2023-03-06T03:24:40.241Z,56.46
2023-03-06T03:25:40.039Z,57.38
2023-03-06T03:26:40.153Z,58.65
2023-03-06T03:27:40.019Z,58.92
2023-03-06T03:28:40.080Z,58.35
2023-03-06T03:29:39.990Z,59.50
2023-03-06T03:30:40.061Z,60.05
2023-03-06T03:31:39.961Z,59.12
2023-03-06T03:32:40.068Z,60.74
2023-03-06T03:33:39.954Z,61.16
2023-03-06T03:34:40.091Z,61.06
2023-03-06T03:35:39.958Z,60.91
2023-03-06T03:36:41.115Z,61.00
2023-03-06T03:37:39.887Z,62.00
2023-03-06T03:38:39.949Z,62.28
2023-03-06T03:39:39.851Z,62.87
2023-03-06T03:40:39.998Z,62.98
2023-03-06T03:41:39.829Z,62.96
2023-03-06T03:42:40.001Z,62.81
2023-03-06T03:43:39.799Z,63.36
2023-03-06T03:45:00.943Z,63.94
2023-03-06T03:45:39.801Z,63.96
2023-03-06T03:46:39.908Z,64.27
2023-03-06T03:47:39.750Z,64.02
2023-03-06T03:48:40.811Z,63.93
2023-03-06T03:49:39.726Z,64.24
2023-03-06T03:50:39.874Z,64.38
2023-03-06T03:51:39.701Z,64.04
2023-03-06T03:52:39.817Z,64.80
2023-03-06T03:53:39.680Z,65.13
2023-03-06T03:54:39.798Z,64.72
2023-03-06T03:55:39.641Z,64.60
2023-03-06T03:56:39.667Z,65.06
2023-03-06T03:57:39.624Z,64.72
2023-03-06T03:58:39.732Z,65.04
2023-03-06T03:59:39.598Z,65.44
2023-03-06T04:00:40.717Z,65.10
2023-03-06T04:01:39.947Z,64.97
2023-03-06T04:02:39.676Z,64.82
2023-03-06T04:03:39.540Z,65.45
2023-03-06T04:04:39.731Z,65.11
2023-03-06T04:05:39.527Z,65.43
2023-03-06T04:06:39.600Z,65.14
2023-03-06T04:07:39.484Z,65.87
2023-03-06T04:08:39.586Z,65.94
2023-03-06T04:09:39.454Z,65.72
2023-03-06T04:10:39.622Z,66.03
2023-03-06T04:11:39.425Z,65.86
2023-03-06T04:12:41.546Z,65.64
2023-03-06T04:13:39.405Z,62.71
2023-03-06T04:14:39.495Z,63.26
2023-03-06T04:15:39.375Z,63.83
2023-03-06T04:16:39.424Z,64.42
2023-03-06T04:17:39.352Z,64.36
2023-03-06T04:18:39.515Z,64.44
2023-03-06T04:19:39.323Z,63.80
2023-03-06T04:20:39.493Z,64.53
2023-03-06T04:21:39.294Z,64.30
2023-03-06T04:22:39.432Z,64.71
2023-03-06T04:23:39.274Z,63.90
2023-03-06T04:24:39.317Z,64.24
2023-03-06T04:25:39.242Z,64.24
2023-03-06T04:26:39.300Z,63.76
2023-03-06T04:27:39.223Z,63.39
2023-03-06T04:28:39.382Z,63.97
2023-03-06T04:29:39.189Z,63.91
2023-03-06T04:30:39.329Z,64.24
2023-03-06T04:31:39.268Z,62.97
2023-03-06T04:32:39.424Z,63.80
2023-03-06T04:33:39.149Z,64.42
2023-03-06T04:34:40.275Z,64.89
2023-03-06T04:35:39.174Z,65.31
2023-03-06T04:36:39.239Z,65.04
2023-03-06T04:37:39.120Z,65.12
2023-03-06T04:38:39.232Z,65.34
2023-03-06T04:39:39.054Z,65.91
2023-03-06T04:40:39.248Z,65.12
2023-03-06T04:41:39.041Z,64.85
2023-03-06T04:42:39.134Z,64.01
2023-03-06T04:43:39.005Z,64.79
2023-03-06T04:44:39.145Z,65.68
2023-03-06T04:45:39.153Z,65.66
2023-03-06T04:46:39.053Z,64.94
2023-03-06T04:47:38.963Z,65.41
2023-03-06T04:48:39.154Z,65.92
2023-03-06T04:49:38.933Z,65.93
2023-03-06T04:50:39.127Z,65.66
2023-03-06T04:51:38.907Z,65.54
2023-03-06T04:52:38.955Z,65.70
2023-03-06T04:53:38.880Z,65.37
2023-03-06T04:54:38.953Z,65.22
2023-03-06T04:55:38.847Z,65.01
2023-03-06T04:56:38.934Z,64.30
2023-03-06T04:57:38.825Z,65.66
2023-03-06T04:58:40.005Z,65.08
2023-03-06T04:59:39.289Z,65.99
2023-03-06T05:00:38.983Z,66.06
2023-03-06T05:01:38.771Z,66.29
2023-03-06T05:02:38.832Z,66.57
2023-03-06T05:03:38.756Z,65.92
2023-03-06T05:04:38.908Z,65.64
2023-03-06T05:05:38.731Z,65.74
2023-03-06T05:06:38.851Z,65.77
2023-03-06T05:07:38.699Z,65.95
2023-03-06T05:08:41.031Z,66.43
2023-03-06T05:09:39.192Z,66.42
2023-03-06T05:10:38.777Z,66.64
2023-03-06T05:11:38.666Z,66.37
2023-03-06T05:12:38.769Z,66.73
2023-03-06T05:13:38.628Z,67.52
2023-03-06T05:14:38.747Z,68.22
2023-03-06T05:15:38.588Z,69.22
2023-03-06T05:16:38.724Z,70.42
2023-03-06T05:17:38.579Z,71.05
2023-03-06T05:18:38.816Z,70.78
2023-03-06T05:19:38.524Z,69.46
2023-03-06T05:20:38.655Z,69.83
2023-03-06T05:21:38.505Z,69.23
2023-03-06T05:22:38.685Z,70.23
2023-03-06T05:23:38.535Z,70.56
2023-03-06T05:24:38.573Z,71.33
2023-03-06T05:25:38.455Z,70.24
2023-03-06T05:26:38.554Z,70.39
2023-03-06T05:27:38.473Z,70.48
2023-03-06T05:28:38.494Z,70.25
2023-03-06T05:29:38.402Z,69.68
2023-03-06T05:30:38.481Z,69.32
2023-03-06T05:31:38.413Z,69.39
2023-03-06T05:32:38.519Z,69.14
2023-03-06T05:33:38.375Z,69.82
2023-03-06T05:34:38.492Z,69.61
2023-03-06T05:35:38.357Z,69.34
2023-03-06T05:36:40.534Z,69.65
2023-03-06T05:37:38.283Z,69.89
2023-03-06T05:38:38.385Z,69.82
2023-03-06T05:39:38.264Z,69.41
2023-03-06T05:40:38.405Z,69.78
2023-03-06T05:41:38.246Z,69.61
2023-03-06T05:42:38.392Z,69.22
2023-03-06T05:43:38.215Z,69.47
2023-03-06T05:44:38.380Z,68.74
2023-03-06T05:45:38.284Z,69.02
2023-03-06T05:46:38.324Z,68.47
2023-03-06T05:47:38.176Z,68.37
2023-03-06T05:48:38.315Z,67.97
2023-03-06T05:49:38.137Z,68.00
2023-03-06T05:50:38.284Z,68.01
2023-03-06T05:51:38.122Z,67.49
2023-03-06T05:52:38.215Z,67.43
2023-03-06T05:53:38.087Z,67.75
2023-03-06T05:54:38.304Z,67.53
2023-03-06T05:55:38.125Z,67.11
2023-03-06T05:56:38.094Z,66.54
2023-03-06T05:57:38.056Z,65.92
2023-03-06T05:58:38.168Z,66.21
2023-03-06T05:59:38.013Z,66.93
2023-03-06T06:00:38.122Z,66.69
2023-03-06T06:01:37.983Z,65.90
2023-03-06T06:02:38.304Z,65.28
2023-03-06T06:03:38.171Z,65.88
2023-03-06T06:04:38.134Z,66.59
2023-03-06T06:05:37.939Z,66.71
2023-03-06T06:06:38.011Z,67.21
2023-03-06T06:07:37.900Z,67.24
2023-03-06T06:08:38.003Z,67.06
2023-03-06T06:09:37.881Z,67.29
2023-03-06T06:10:38.054Z,67.40
2023-03-06T06:11:37.851Z,67.09
2023-03-06T06:12:38.026Z,67.24
2023-03-06T06:13:37.835Z,68.38
2023-03-06T06:14:37.901Z,69.21
2023-03-06T06:15:37.926Z,70.82
2023-03-06T06:16:58.828Z,71.18
2023-03-06T06:17:37.776Z,71.90
2023-03-06T06:18:40.985Z,71.86
2023-03-06T06:19:37.758Z,71.24
2023-03-06T06:20:37.939Z,71.18
2023-03-06T06:21:37.734Z,70.12
2023-03-06T06:22:37.910Z,70.45
2023-03-06T06:23:37.687Z,71.38
2023-03-06T06:24:37.731Z,71.47
2023-03-06T06:25:37.675Z,71.38
2023-03-06T06:26:38.738Z,71.85
2023-03-06T06:27:37.669Z,71.74
2023-03-06T06:29:46.990Z,69.80
2023-03-06T06:30:46.959Z,69.80
2023-03-06T06:31:47.040Z,70.56
2023-03-06T06:32:46.890Z,70.00
2023-03-06T06:33:48.029Z,69.79
2023-03-06T06:34:46.867Z,68.19
2023-03-06T06:35:47.031Z,68.32
2023-03-06T06:36:46.869Z,67.59
2023-03-06T06:37:46.976Z,67.33
2023-03-06T06:38:46.845Z,67.14
2023-03-06T06:39:49.040Z,66.27
2023-03-06T06:40:58.401Z,66.49
2023-03-06T06:42:00.053Z,66.41
2023-03-06T06:42:47.952Z,66.35
2023-03-06T06:43:46.748Z,66.23
2023-03-06T06:44:46.951Z,66.72
2023-03-06T06:45:48.898Z,66.39
2023-03-06T06:47:47.864Z,66.28
2023-03-06T06:48:46.688Z,66.48
2023-03-06T06:49:46.778Z,66.39
2023-03-06T06:50:46.683Z,66.54
2023-03-06T06:51:46.758Z,67.44
2023-03-06T06:52:46.684Z,66.81
2023-03-06T06:53:46.728Z,66.93
2023-03-06T06:54:46.631Z,67.11
2023-03-06T06:55:46.827Z,67.29
2023-03-06T06:56:46.588Z,68.38
2023-03-06T06:57:46.627Z,68.76
2023-03-06T06:58:46.566Z,69.38
2023-03-06T06:59:46.745Z,69.00
2023-03-06T07:00:46.535Z,68.47
2023-03-06T07:01:46.649Z,67.93
2023-03-06T07:02:46.516Z,67.71
2023-03-06T07:03:46.666Z,66.83
2023-03-06T07:05:02.498Z,68.39
2023-03-06T07:05:47.502Z,66.88
2023-03-06T07:06:46.551Z,66.40
2023-03-06T07:07:46.445Z,65.75
2023-03-06T07:08:47.667Z,65.99
2023-03-06T07:09:46.493Z,67.49
2023-03-06T07:10:47.570Z,68.51
2023-03-06T07:11:46.446Z,68.05
2023-03-06T07:12:46.473Z,68.65
2023-03-06T07:13:46.377Z,68.13
2023-03-06T07:14:46.486Z,69.04
2023-03-06T07:15:46.367Z,69.31
2023-03-06T07:16:46.447Z,68.63
2023-03-06T07:17:48.261Z,68.17
2023-03-06T07:18:46.490Z,67.01
2023-03-06T07:19:46.296Z,65.80
2023-03-06T07:20:46.379Z,65.62
2023-03-06T07:21:46.336Z,65.20
2023-03-06T07:22:51.503Z,65.29
2023-03-06T07:23:47.234Z,65.09
2023-03-06T07:24:46.348Z,65.39
2023-03-06T07:25:46.195Z,65.89
2023-03-06T07:26:46.285Z,65.17
2023-03-06T07:27:52.700Z,64.18
2023-03-06T07:28:52.737Z,64.38
2023-03-06T07:29:47.166Z,63.41
2023-03-06T07:30:47.225Z,63.73
2023-03-06T07:31:46.189Z,64.26
2023-03-06T07:32:47.269Z,62.37
2023-03-06T07:33:47.109Z,63.05
2023-03-06T07:34:46.227Z,61.72
2023-03-06T07:35:46.202Z,61.46
2023-03-06T07:36:46.171Z,62.36
2023-03-06T07:37:46.054Z,61.37
2023-03-06T07:38:46.108Z,61.04
2023-03-06T07:39:46.016Z,60.78
2023-03-06T07:40:46.167Z,61.03
2023-03-06T07:41:46.014Z,61.10
2023-03-06T07:42:46.177Z,62.23
2023-03-06T07:43:45.969Z,62.24
2023-03-06T07:45:55.288Z,60.94
2023-03-06T07:46:55.257Z,60.94
2023-03-06T07:47:55.339Z,62.38
2023-03-06T07:48:55.181Z,62.51
2023-03-06T07:49:55.262Z,61.23
2023-03-06T07:50:55.119Z,60.25
2023-03-06T07:51:55.287Z,58.58
2023-03-06T07:52:55.132Z,58.43
2023-03-06T07:53:55.222Z,60.04
2023-03-06T07:54:55.078Z,60.12
2023-03-06T07:55:55.168Z,58.64
2023-03-06T07:56:55.050Z,57.97
2023-03-06T07:57:55.201Z,57.65
2023-03-06T07:58:56.151Z,57.70
2023-03-06T07:59:55.257Z,58.51
2023-03-06T08:00:54.995Z,58.30
2023-03-06T08:01:55.183Z,58.05
2023-03-06T08:02:55.007Z,57.38
2023-03-06T08:03:55.096Z,58.67
2023-03-06T08:04:54.962Z,58.35
2023-03-06T08:06:16.042Z,60.19
2023-03-06T08:06:54.919Z,62.01
2023-03-06T08:07:55.079Z,60.05
2023-03-06T08:08:54.888Z,59.77
2023-03-06T08:09:55.028Z,60.02
2023-03-06T08:10:54.932Z,60.06
2023-03-06T08:11:55.967Z,59.41
2023-03-06T08:12:54.836Z,60.04
2023-03-06T08:13:54.884Z,59.98
2023-03-06T08:14:54.805Z,59.92
2023-03-06T08:15:54.928Z,60.72
2023-03-06T08:16:54.804Z,60.55
2023-03-06T08:17:56.004Z,60.99
2023-03-06T08:18:54.752Z,60.36
2023-03-06T08:19:54.883Z,60.17
2023-03-06T08:20:54.725Z,60.22
2023-03-06T08:21:54.821Z,58.91
2023-03-06T08:22:54.712Z,59.03
2023-03-06T08:23:54.833Z,59.89
2023-03-06T08:24:54.671Z,59.49
2023-03-06T08:25:54.802Z,58.47
2023-03-06T08:26:54.653Z,58.75
2023-03-06T08:27:55.758Z,58.57
2023-03-06T08:28:54.663Z,58.48
2023-03-06T08:29:54.672Z,59.74
2023-03-06T08:30:54.590Z,58.77
2023-03-06T08:31:54.894Z,58.54
2023-03-06T08:32:54.735Z,57.81
2023-03-06T08:33:54.661Z,58.64
2023-03-06T08:34:54.561Z,58.82
2023-03-06T08:35:54.712Z,58.36
2023-03-06T08:36:54.521Z,58.62
2023-03-06T08:37:54.701Z,58.21
2023-03-06T08:38:54.503Z,57.73
2023-03-06T08:39:56.632Z,57.93
2023-03-06T08:40:54.482Z,57.93
2023-03-06T08:42:17.541Z,58.16
2023-03-06T08:42:54.437Z,59.15
2023-03-06T08:43:54.511Z,57.51
2023-03-06T08:44:54.407Z,56.77
2023-03-06T08:45:54.558Z,57.09
2023-03-06T08:46:54.561Z,56.57
2023-03-06T08:47:54.587Z,56.62
2023-03-06T08:48:54.350Z,56.61
2023-03-06T08:49:54.442Z,56.69
2023-03-06T08:50:54.331Z,56.74
2023-03-06T08:51:54.459Z,57.65
2023-03-06T08:52:54.327Z,56.96
2023-03-06T08:53:54.404Z,58.17
2023-03-06T08:54:54.318Z,57.90
2023-03-06T08:55:54.417Z,58.45
2023-03-06T08:56:54.237Z,57.93
2023-03-06T08:57:54.347Z,57.38
2023-03-06T08:58:54.245Z,56.76
2023-03-06T08:59:54.276Z,56.94
2023-03-06T09:00:54.380Z,56.27
2023-03-06T09:01:54.375Z,56.50
2023-03-06T09:02:54.207Z,56.55
2023-03-06T09:03:55.405Z,56.28
2023-03-06T09:04:54.216Z,56.89
2023-03-06T09:05:54.362Z,57.43
2023-03-06T09:06:55.550Z,58.58
2023-03-06T09:07:54.224Z,57.35
2023-03-06T09:08:54.124Z,59.03
2023-03-06T09:09:56.276Z,58.58
2023-03-06T09:10:54.101Z,57.63
2023-03-06T09:11:54.191Z,58.23
2023-03-06T09:12:55.020Z,57.70
2023-03-06T09:13:54.126Z,57.15
2023-03-06T09:14:54.004Z,57.50
2023-03-06T09:15:54.169Z,56.68
2023-03-06T09:16:54.085Z,57.47
2023-03-06T09:17:54.242Z,56.80
2023-03-06T09:18:53.970Z,55.85
2023-03-06T09:19:54.045Z,56.01
2023-03-06T09:20:53.935Z,55.94
2023-03-06T09:21:55.397Z,56.36
2023-03-06T09:22:53.936Z,56.01
2023-03-06T09:23:54.018Z,56.62
2023-03-06T09:24:53.867Z,56.35
2023-03-06T09:25:53.957Z,56.63
2023-03-06T09:26:53.851Z,56.47
2023-03-06T09:28:14.920Z,56.86
2023-03-06T09:28:53.834Z,57.68
2023-03-06T09:29:53.919Z,58.08
2023-03-06T09:30:53.932Z,57.16
2023-03-06T09:31:53.960Z,57.18
2023-03-06T09:32:53.768Z,57.43
2023-03-06T09:33:54.240Z,57.73
2023-03-06T09:34:53.818Z,57.80
2023-03-06T09:35:53.881Z,57.41
2023-03-06T09:36:57.167Z,56.67
2023-03-06T09:37:53.710Z,56.56
2023-03-06T09:38:55.968Z,56.60
2023-03-06T09:39:53.690Z,57.09
2023-03-06T09:40:53.771Z,56.97
2023-03-06T09:41:53.711Z,56.94
2023-03-06T09:42:53.801Z,57.51
2023-03-06T09:43:53.627Z,56.62
2023-03-06T09:44:53.759Z,56.56
2023-03-06T09:45:53.678Z,56.64
2023-03-06T09:46:53.806Z,56.34
2023-03-06T09:47:53.617Z,57.39
2023-03-06T09:48:54.627Z,57.71
2023-03-06T09:49:53.554Z,58.93
2023-03-06T09:50:53.648Z,57.84
2023-03-06T09:51:53.794Z,56.77
2023-03-06T09:52:54.636Z,56.62
2023-03-06T09:53:53.504Z,56.88
2023-03-06T09:54:53.605Z,57.32
2023-03-06T09:55:53.523Z,56.86
2023-03-06T09:56:53.653Z,57.18
2023-03-06T09:57:53.470Z,57.88
2023-03-06T09:58:53.484Z,58.38
2023-03-06T09:59:53.404Z,57.63
2023-03-06T10:00:53.518Z,59.08
2023-03-06T10:01:53.442Z,58.39
2023-03-06T10:02:55.632Z,57.93
2023-03-06T10:03:53.363Z,58.65
2023-03-06T10:05:14.525Z,57.83
2023-03-06T10:05:53.328Z,58.17
2023-03-06T10:06:53.433Z,58.88
2023-03-06T10:07:53.300Z,58.53
2023-03-06T10:08:54.555Z,57.68
2023-03-06T10:09:53.284Z,56.99
2023-03-06T10:10:53.470Z,56.65
2023-03-06T10:11:53.252Z,57.68
2023-03-06T10:12:53.428Z,56.89
2023-03-06T10:13:53.220Z,57.74
2023-03-06T10:14:54.394Z,57.41
2023-03-06T10:15:53.248Z,57.58
2023-03-06T10:16:53.311Z,57.24
2023-03-06T10:17:53.166Z,57.02
2023-03-06T10:18:53.235Z,57.51
2023-03-06T10:19:53.204Z,57.60
2023-03-06T10:20:55.263Z,57.58
2023-03-06T10:21:53.148Z,57.45
2023-03-06T10:23:01.119Z,58.47
2023-03-06T10:23:54.106Z,57.64
2023-03-06T10:24:53.253Z,57.56
2023-03-06T10:25:53.068Z,57.42
2023-03-06T10:26:53.357Z,58.03
2023-03-06T10:27:53.204Z,58.05
2023-03-06T10:28:53.116Z,58.85
2023-03-06T10:30:02.190Z,58.09
2023-03-06T10:30:54.122Z,58.33
2023-03-06T10:31:53.115Z,58.14
2023-03-06T10:32:53.004Z,57.09
2023-03-06T10:33:53.148Z,57.25
2023-03-06T10:34:52.942Z,57.12
2023-03-06T10:35:53.209Z,57.42
2023-03-06T10:36:52.940Z,58.15
2023-03-06T10:37:53.039Z,57.27
2023-03-06T10:38:52.896Z,56.69
2023-03-06T10:39:53.113Z,57.09
2023-03-06T10:40:52.981Z,56.98
2023-03-06T10:41:53.052Z,57.93
2023-03-06T10:43:05.121Z,57.73
2023-03-06T10:43:53.833Z,56.62
2023-03-06T10:44:52.908Z,57.08
2023-03-06T10:45:52.814Z,57.86
2023-03-06T10:46:53.865Z,57.60
2023-03-06T10:47:52.766Z,57.56
2023-03-06T10:48:52.865Z,57.10
2023-03-06T10:49:52.746Z,57.80
2023-03-06T10:50:52.931Z,57.78
2023-03-06T10:51:52.771Z,57.67
2023-03-06T10:52:52.741Z,56.72
2023-03-06T10:53:52.682Z,56.44
2023-03-06T10:54:52.826Z,57.74
2023-03-06T10:55:52.668Z,56.76
2023-03-06T10:56:52.764Z,56.63
2023-03-06T10:57:52.664Z,57.84
2023-03-06T10:58:52.741Z,57.33
2023-03-06T10:59:52.627Z,56.83
2023-03-06T11:00:52.773Z,56.26
2023-03-06T11:01:52.608Z,56.18
2023-03-06T11:02:52.714Z,56.38
2023-03-06T11:03:52.564Z,56.88
2023-03-06T11:04:54.800Z,56.72
2023-03-06T11:05:52.522Z,55.94
2023-03-06T11:06:52.683Z,56.26
2023-03-06T11:07:52.542Z,56.48
2023-03-06T11:08:52.613Z,57.15
2023-03-06T11:09:52.490Z,58.18
2023-03-06T11:10:52.652Z,56.74
2023-03-06T11:11:52.486Z,56.48
2023-03-06T11:12:53.512Z,56.48
2023-03-06T11:13:52.421Z,57.05
2023-03-06T11:14:52.531Z,56.33
2023-03-06T11:15:52.443Z,56.53
2023-03-06T11:16:52.634Z,57.40
2023-03-06T11:17:52.382Z,57.53
2023-03-06T11:18:52.504Z,56.93
2023-03-06T11:19:52.332Z,56.17
2023-03-06T11:20:53.266Z,55.85
2023-03-06T11:21:52.332Z,56.08
2023-03-06T11:24:01.853Z,55.36
2023-03-06T11:25:01.693Z,55.36
2023-03-06T11:26:01.771Z,55.67
2023-03-06T11:27:01.618Z,56.14
2023-03-06T11:28:01.718Z,56.35
2023-03-06T11:29:01.644Z,56.20
2023-03-06T11:30:01.649Z,56.66
2023-03-06T11:31:01.646Z,56.48
2023-03-06T11:32:01.770Z,55.91
2023-03-06T11:33:01.567Z,56.05
2023-03-06T11:34:01.726Z,56.75
2023-03-06T11:35:01.569Z,56.15
2023-03-06T11:36:01.554Z,57.09
2023-03-06T11:37:01.494Z,55.73
2023-03-06T11:38:01.588Z,55.05
2023-03-06T11:39:01.466Z,55.06
2023-03-06T11:40:02.556Z,54.67
2023-03-06T11:41:01.422Z,55.61
2023-03-06T11:42:01.552Z,54.43
2023-03-06T11:43:01.396Z,54.31
2023-03-06T11:44:01.616Z,54.82
2023-03-06T11:45:03.036Z,54.87
2023-03-06T11:46:01.436Z,54.40
2023-03-06T11:47:01.404Z,54.60
2023-03-06T11:48:01.531Z,55.02
2023-03-06T11:49:01.323Z,54.43
2023-03-06T11:50:01.402Z,55.61
2023-03-06T11:51:01.304Z,55.13
2023-03-06T11:52:03.523Z,54.21
2023-03-06T11:53:01.266Z,55.46
2023-03-06T11:54:01.384Z,55.08
2023-03-06T11:55:01.315Z,55.37
2023-03-06T11:56:03.396Z,55.18
2023-03-06T11:57:01.241Z,55.48
2023-03-06T11:58:03.334Z,56.90
2023-03-06T11:59:01.199Z,55.09
2023-03-06T12:00:22.249Z,56.12
2023-03-06T12:01:01.158Z,55.52
2023-03-06T12:02:01.347Z,54.15
2023-03-06T12:03:01.155Z,54.73
2023-03-06T12:04:01.247Z,55.22
2023-03-06T12:05:01.261Z,55.41
2023-03-06T12:06:01.181Z,54.79
2023-03-06T12:07:01.089Z,54.49
2023-03-06T12:08:01.231Z,54.44
2023-03-06T12:09:01.068Z,55.19
2023-03-06T12:10:01.155Z,56.01
2023-03-06T12:11:01.076Z,55.94
2023-03-06T12:12:01.245Z,55.76
2023-03-06T12:13:00.996Z,55.46
2023-03-06T12:14:03.667Z,55.28
2023-03-06T12:15:01.094Z,55.05
2023-03-06T12:16:01.064Z,55.26
2023-03-06T12:17:00.945Z,55.24
2023-03-06T12:18:01.141Z,56.23
2023-03-06T12:19:00.917Z,56.50
2023-03-06T12:20:01.027Z,56.39
2023-03-06T12:21:00.924Z,56.15
2023-03-06T12:22:01.036Z,56.81
2023-03-06T12:23:14.488Z,56.30
2023-03-06T12:24:01.873Z,57.08
2023-03-06T12:25:02.390Z,56.56
2023-03-06T12:26:00.818Z,56.40
2023-03-06T12:27:01.892Z,56.87
2023-03-06T12:28:00.814Z,56.69
2023-03-06T12:29:01.858Z,56.63
2023-03-06T12:30:00.782Z,56.68
2023-03-06T12:31:00.866Z,56.62
2023-03-06T12:32:00.842Z,56.79
2023-03-06T12:33:00.880Z,56.47
2023-03-06T12:34:00.748Z,56.39
2023-03-06T12:35:01.082Z,56.12
2023-03-06T12:36:00.725Z,56.05
2023-03-06T12:37:00.780Z,56.90
2023-03-06T12:38:00.736Z,56.99
2023-03-06T12:39:04.054Z,55.87
2023-03-06T12:40:00.667Z,55.94
2023-03-06T12:41:00.744Z,56.43
2023-03-06T12:42:00.614Z,55.98
2023-03-06T12:43:00.786Z,56.53
2023-03-06T12:44:00.677Z,56.73
2023-03-06T12:45:00.800Z,56.28
2023-03-06T12:46:00.595Z,56.87
2023-03-06T12:47:00.666Z,57.46
2023-03-06T12:48:00.544Z,57.29
2023-03-06T12:49:00.686Z,56.55
2023-03-06T12:50:00.516Z,56.36
2023-03-06T12:51:02.635Z,56.46
2023-03-06T12:52:00.509Z,57.06
2023-03-06T12:53:00.757Z,56.65
2023-03-06T12:54:00.479Z,57.18
2023-03-06T12:55:01.518Z,56.84
2023-03-06T12:56:00.442Z,55.99
2023-03-06T12:57:00.585Z,56.57
2023-03-06T12:58:00.408Z,56.05